sensor_id;sensor_type;location;lat;lon;timestamp;pressure;altitude;pressure_sealevel;temperature
60966;BMP180;46834;51.100;6.886;2022-12-07T00:01:25;101237.00;;;9.60
60966;BMP180;46834;51.100;6.886;2022-12-07T00:03:54;101251.00;;;9.60
60966;BMP180;46834;51.100;6.886;2022-12-07T00:06:26;101249.00;;;9.60
60966;BMP180;46834;51.100;6.886;2022-12-07T00:08:52;101252.00;;;9.60
60966;BMP180;46834;51.100;6.886;2022-12-07T00:11:21;101248.00;;;9.60
60966;BMP180;46834;51.100;6.886;2022-12-07T00:13:52;101234.00;;;9.60
60966;BMP180;46834;51.100;6.886;2022-12-07T00:16:21;101243.00;;;9.60
60966;BMP180;46834;51.100;6.886;2022-12-07T00:18:47;101230.00;;;9.60
60966;BMP180;46834;51.100;6.886;2022-12-07T00:21:20;101242.00;;;9.60
60966;BMP180;46834;51.100;6.886;2022-12-07T00:23:48;101229.00;;;9.60
60966;BMP180;46834;51.100;6.886;2022-12-07T00:26:21;101240.00;;;9.60
60966;BMP180;46834;51.100;6.886;2022-12-07T00:28:53;101240.00;;;9.60
60966;BMP180;46834;51.100;6.886;2022-12-07T00:31:24;101241.00;;;9.60
60966;BMP180;46834;51.100;6.886;2022-12-07T00:33:50;101245.00;;;9.60
60966;BMP180;46834;51.100;6.886;2022-12-07T00:36:20;101226.00;;;9.60
60966;BMP180;46834;51.100;6.886;2022-12-07T00:38:46;101231.00;;;9.60
60966;BMP180;46834;51.100;6.886;2022-12-07T00:41:15;101245.00;;;9.60
60966;BMP180;46834;51.100;6.886;2022-12-07T00:43:44;101236.00;;;9.60
60966;BMP180;46834;51.100;6.886;2022-12-07T00:46:11;101247.00;;;9.60
60966;BMP180;46834;51.100;6.886;2022-12-07T00:48:37;101236.00;;;9.60
60966;BMP180;46834;51.100;6.886;2022-12-07T00:51:04;101229.00;;;9.60
60966;BMP180;46834;51.100;6.886;2022-12-07T00:53:30;101232.00;;;9.60
60966;BMP180;46834;51.100;6.886;2022-12-07T00:55:56;101241.00;;;9.60
60966;BMP180;46834;51.100;6.886;2022-12-07T00:58:23;101226.00;;;9.60
60966;BMP180;46834;51.100;6.886;2022-12-07T01:00:49;101220.00;;;9.60
60966;BMP180;46834;51.100;6.886;2022-12-07T01:03:16;101219.00;;;9.50
60966;BMP180;46834;51.100;6.886;2022-12-07T01:05:53;101220.00;;;9.50
60966;BMP180;46834;51.100;6.886;2022-12-07T01:08:20;101211.00;;;9.50
60966;BMP180;46834;51.100;6.886;2022-12-07T01:10:46;101214.00;;;9.50
60966;BMP180;46834;51.100;6.886;2022-12-07T01:13:12;101222.00;;;9.50
60966;BMP180;46834;51.100;6.886;2022-12-07T01:15:43;101219.00;;;9.50
60966;BMP180;46834;51.100;6.886;2022-12-07T01:18:09;101224.00;;;9.50
60966;BMP180;46834;51.100;6.886;2022-12-07T01:20:35;101220.00;;;9.50
60966;BMP180;46834;51.100;6.886;2022-12-07T01:23:01;101224.00;;;9.50
60966;BMP180;46834;51.100;6.886;2022-12-07T01:25:27;101221.00;;;9.40
60966;BMP180;46834;51.100;6.886;2022-12-07T01:27:52;101220.00;;;9.40
60966;BMP180;46834;51.100;6.886;2022-12-07T01:30:18;101210.00;;;9.40
60966;BMP180;46834;51.100;6.886;2022-12-07T01:32:44;101224.00;;;9.40
60966;BMP180;46834;51.100;6.886;2022-12-07T01:35:09;101209.00;;;9.40
60966;BMP180;46834;51.100;6.886;2022-12-07T01:37:37;101208.00;;;9.40
60966;BMP180;46834;51.100;6.886;2022-12-07T01:40:07;101215.00;;;9.40
60966;BMP180;46834;51.100;6.886;2022-12-07T01:42:34;101215.00;;;9.40
60966;BMP180;46834;51.100;6.886;2022-12-07T01:47:53;101211.00;;;9.40
60966;BMP180;46834;51.100;6.886;2022-12-07T01:50:20;101218.00;;;9.40
60966;BMP180;46834;51.100;6.886;2022-12-07T01:52:50;101213.00;;;9.40
60966;BMP180;46834;51.100;6.886;2022-12-07T01:55:18;101210.00;;;9.40
60966;BMP180;46834;51.100;6.886;2022-12-07T01:57:49;101214.00;;;9.40
60966;BMP180;46834;51.100;6.886;2022-12-07T02:00:17;101197.00;;;9.40
60966;BMP180;46834;51.100;6.886;2022-12-07T02:03:03;101213.00;;;9.30
60966;BMP180;46834;51.100;6.886;2022-12-07T02:05:31;101215.00;;;9.40
60966;BMP180;46834;51.100;6.886;2022-12-07T02:07:58;101198.00;;;9.40
60966;BMP180;46834;51.100;6.886;2022-12-07T02:10:30;101197.00;;;9.30
60966;BMP180;46834;51.100;6.886;2022-12-07T02:18:44;101205.00;;;9.30
60966;BMP180;46834;51.100;6.886;2022-12-07T02:24:44;101208.00;;;9.30
60966;BMP180;46834;51.100;6.886;2022-12-07T02:27:38;101201.00;;;9.20
60966;BMP180;46834;51.100;6.886;2022-12-07T02:30:12;101201.00;;;9.20
60966;BMP180;46834;51.100;6.886;2022-12-07T02:33:11;101201.00;;;9.20
60966;BMP180;46834;51.100;6.886;2022-12-07T02:36:02;101189.00;;;9.20
60966;BMP180;46834;51.100;6.886;2022-12-07T02:41:27;101196.00;;;9.20
60966;BMP180;46834;51.100;6.886;2022-12-07T02:43:59;101202.00;;;9.20
60966;BMP180;46834;51.100;6.886;2022-12-07T02:46:34;101193.00;;;9.20
60966;BMP180;46834;51.100;6.886;2022-12-07T02:49:02;101202.00;;;9.30
60966;BMP180;46834;51.100;6.886;2022-12-07T02:51:32;101190.00;;;9.20
60966;BMP180;46834;51.100;6.886;2022-12-07T02:53:59;101201.00;;;9.20
60966;BMP180;46834;51.100;6.886;2022-12-07T03:03:02;101184.00;;;9.10
60966;BMP180;46834;51.100;6.886;2022-12-07T03:06:02;101181.00;;;9.10
60966;BMP180;46834;51.100;6.886;2022-12-07T03:08:57;101196.00;;;9.10
60966;BMP180;46834;51.100;6.886;2022-12-07T03:11:50;101183.00;;;9.10
60966;BMP180;46834;51.100;6.886;2022-12-07T03:14:29;101189.00;;;9.10
60966;BMP180;46834;51.100;6.886;2022-12-07T03:17:20;101200.00;;;9.10
60966;BMP180;46834;51.100;6.886;2022-12-07T03:19:51;101194.00;;;9.10
60966;BMP180;46834;51.100;6.886;2022-12-07T03:22:20;101200.00;;;9.10
60966;BMP180;46834;51.100;6.886;2022-12-07T03:24:55;101204.00;;;9.10
60966;BMP180;46834;51.100;6.886;2022-12-07T03:27:28;101193.00;;;9.10
60966;BMP180;46834;51.100;6.886;2022-12-07T03:30:05;101200.00;;;9.10
60966;BMP180;46834;51.100;6.886;2022-12-07T03:32:39;101203.00;;;9.20
60966;BMP180;46834;51.100;6.886;2022-12-07T03:38:27;101192.00;;;9.10
60966;BMP180;46834;51.100;6.886;2022-12-07T03:41:08;101188.00;;;9.10
60966;BMP180;46834;51.100;6.886;2022-12-07T03:43:36;101189.00;;;9.20
60966;BMP180;46834;51.100;6.886;2022-12-07T03:46:28;101191.00;;;9.10
60966;BMP180;46834;51.100;6.886;2022-12-07T03:49:25;101189.00;;;9.10
60966;BMP180;46834;51.100;6.886;2022-12-07T03:52:12;101188.00;;;9.10
60966;BMP180;46834;51.100;6.886;2022-12-07T03:55:06;101197.00;;;9.10
60966;BMP180;46834;51.100;6.886;2022-12-07T03:57:35;101194.00;;;9.10
60966;BMP180;46834;51.100;6.886;2022-12-07T04:00:07;101190.00;;;9.10
60966;BMP180;46834;51.100;6.886;2022-12-07T04:02:34;101191.00;;;9.20
60966;BMP180;46834;51.100;6.886;2022-12-07T04:05:01;101198.00;;;9.20
60966;BMP180;46834;51.100;6.886;2022-12-07T04:07:27;101196.00;;;9.20
60966;BMP180;46834;51.100;6.886;2022-12-07T04:09:52;101189.00;;;9.20
60966;BMP180;46834;51.100;6.886;2022-12-07T04:12:21;101201.00;;;9.20
60966;BMP180;46834;51.100;6.886;2022-12-07T04:14:46;101188.00;;;9.20
60966;BMP180;46834;51.100;6.886;2022-12-07T04:17:12;101191.00;;;9.10
60966;BMP180;46834;51.100;6.886;2022-12-07T04:19:38;101186.00;;;9.10
60966;BMP180;46834;51.100;6.886;2022-12-07T04:22:05;101191.00;;;9.20
60966;BMP180;46834;51.100;6.886;2022-12-07T04:24:31;101194.00;;;9.10
60966;BMP180;46834;51.100;6.886;2022-12-07T04:26:57;101184.00;;;9.10
60966;BMP180;46834;51.100;6.886;2022-12-07T04:29:24;101188.00;;;9.10
60966;BMP180;46834;51.100;6.886;2022-12-07T04:31:50;101200.00;;;9.10
60966;BMP180;46834;51.100;6.886;2022-12-07T04:34:17;101201.00;;;9.10
60966;BMP180;46834;51.100;6.886;2022-12-07T04:36:44;101190.00;;;9.10
60966;BMP180;46834;51.100;6.886;2022-12-07T04:39:21;101195.00;;;9.10
60966;BMP180;46834;51.100;6.886;2022-12-07T04:41:48;101194.00;;;9.10
60966;BMP180;46834;51.100;6.886;2022-12-07T04:44:15;101201.00;;;9.10
60966;BMP180;46834;51.100;6.886;2022-12-07T04:46:42;101189.00;;;9.10
60966;BMP180;46834;51.100;6.886;2022-12-07T04:49:08;101192.00;;;9.10
60966;BMP180;46834;51.100;6.886;2022-12-07T04:51:34;101189.00;;;9.10
60966;BMP180;46834;51.100;6.886;2022-12-07T04:53:59;101192.00;;;9.10
60966;BMP180;46834;51.100;6.886;2022-12-07T04:56:25;101186.00;;;9.10
60966;BMP180;46834;51.100;6.886;2022-12-07T04:58:53;101173.00;;;9.10
60966;BMP180;46834;51.100;6.886;2022-12-07T05:01:21;101175.00;;;9.10
60966;BMP180;46834;51.100;6.886;2022-12-07T05:03:47;101177.00;;;9.10
60966;BMP180;46834;51.100;6.886;2022-12-07T05:06:14;101180.00;;;9.10
60966;BMP180;46834;51.100;6.886;2022-12-07T05:08:40;101185.00;;;9.20
60966;BMP180;46834;51.100;6.886;2022-12-07T05:11:07;101189.00;;;9.10
60966;BMP180;46834;51.100;6.886;2022-12-07T05:13:34;101172.00;;;9.10
60966;BMP180;46834;51.100;6.886;2022-12-07T05:16:00;101183.00;;;9.10
60966;BMP180;46834;51.100;6.886;2022-12-07T05:18:26;101188.00;;;9.10
60966;BMP180;46834;51.100;6.886;2022-12-07T05:20:52;101182.00;;;9.10
60966;BMP180;46834;51.100;6.886;2022-12-07T05:23:18;101177.00;;;9.10
60966;BMP180;46834;51.100;6.886;2022-12-07T05:25:45;101168.00;;;9.10
60966;BMP180;46834;51.100;6.886;2022-12-07T05:28:10;101177.00;;;9.10
60966;BMP180;46834;51.100;6.886;2022-12-07T05:30:36;101183.00;;;9.10
60966;BMP180;46834;51.100;6.886;2022-12-07T05:33:03;101180.00;;;9.00
60966;BMP180;46834;51.100;6.886;2022-12-07T05:35:29;101194.00;;;9.00
60966;BMP180;46834;51.100;6.886;2022-12-07T05:37:55;101191.00;;;9.00
60966;BMP180;46834;51.100;6.886;2022-12-07T05:40:22;101186.00;;;9.00
60966;BMP180;46834;51.100;6.886;2022-12-07T05:42:48;101183.00;;;9.00
60966;BMP180;46834;51.100;6.886;2022-12-07T05:45:13;101180.00;;;9.00
60966;BMP180;46834;51.100;6.886;2022-12-07T05:47:39;101186.00;;;9.00
60966;BMP180;46834;51.100;6.886;2022-12-07T05:50:06;101189.00;;;9.00
60966;BMP180;46834;51.100;6.886;2022-12-07T05:52:32;101180.00;;;8.90
60966;BMP180;46834;51.100;6.886;2022-12-07T05:54:57;101187.00;;;8.90
60966;BMP180;46834;51.100;6.886;2022-12-07T05:57:23;101182.00;;;8.90
60966;BMP180;46834;51.100;6.886;2022-12-07T05:59:49;101170.00;;;8.90
60966;BMP180;46834;51.100;6.886;2022-12-07T06:02:16;101173.00;;;8.90
60966;BMP180;46834;51.100;6.886;2022-12-07T06:04:45;101164.00;;;8.90
60966;BMP180;46834;51.100;6.886;2022-12-07T06:07:13;101163.00;;;8.90
60966;BMP180;46834;51.100;6.886;2022-12-07T06:09:40;101176.00;;;8.90
60966;BMP180;46834;51.100;6.886;2022-12-07T06:12:10;101181.00;;;8.80
60966;BMP180;46834;51.100;6.886;2022-12-07T06:14:54;101183.00;;;8.80
60966;BMP180;46834;51.100;6.886;2022-12-07T06:17:20;101183.00;;;8.90
60966;BMP180;46834;51.100;6.886;2022-12-07T06:19:46;101188.00;;;8.90
60966;BMP180;46834;51.100;6.886;2022-12-07T06:22:12;101184.00;;;8.90
60966;BMP180;46834;51.100;6.886;2022-12-07T06:24:39;101184.00;;;8.90
60966;BMP180;46834;51.100;6.886;2022-12-07T06:27:05;101194.00;;;8.90
60966;BMP180;46834;51.100;6.886;2022-12-07T06:29:31;101190.00;;;8.90
60966;BMP180;46834;51.100;6.886;2022-12-07T06:31:57;101196.00;;;8.90
60966;BMP180;46834;51.100;6.886;2022-12-07T06:34:24;101190.00;;;8.80
60966;BMP180;46834;51.100;6.886;2022-12-07T06:36:51;101183.00;;;8.90
60966;BMP180;46834;51.100;6.886;2022-12-07T06:39:21;101189.00;;;8.90
60966;BMP180;46834;51.100;6.886;2022-12-07T06:41:47;101179.00;;;8.90
60966;BMP180;46834;51.100;6.886;2022-12-07T06:44:13;101174.00;;;8.80
60966;BMP180;46834;51.100;6.886;2022-12-07T06:46:39;101189.00;;;8.90
60966;BMP180;46834;51.100;6.886;2022-12-07T06:49:05;101185.00;;;8.90
60966;BMP180;46834;51.100;6.886;2022-12-07T06:51:32;101187.00;;;8.90
60966;BMP180;46834;51.100;6.886;2022-12-07T06:54:00;101190.00;;;8.90
60966;BMP180;46834;51.100;6.886;2022-12-07T06:56:26;101185.00;;;8.80
60966;BMP180;46834;51.100;6.886;2022-12-07T06:58:51;101198.00;;;8.90
60966;BMP180;46834;51.100;6.886;2022-12-07T07:01:18;101193.00;;;8.80
60966;BMP180;46834;51.100;6.886;2022-12-07T07:03:45;101196.00;;;8.80
60966;BMP180;46834;51.100;6.886;2022-12-07T07:06:12;101194.00;;;8.80
60966;BMP180;46834;51.100;6.886;2022-12-07T07:08:38;101184.00;;;8.80
60966;BMP180;46834;51.100;6.886;2022-12-07T07:11:06;101200.00;;;8.80
60966;BMP180;46834;51.100;6.886;2022-12-07T07:13:32;101194.00;;;8.80
60966;BMP180;46834;51.100;6.886;2022-12-07T07:15:57;101206.00;;;8.80
60966;BMP180;46834;51.100;6.886;2022-12-07T07:18:24;101193.00;;;8.80
60966;BMP180;46834;51.100;6.886;2022-12-07T07:20:51;101193.00;;;8.80
60966;BMP180;46834;51.100;6.886;2022-12-07T07:23:18;101188.00;;;8.80
60966;BMP180;46834;51.100;6.886;2022-12-07T07:25:45;101197.00;;;8.80
60966;BMP180;46834;51.100;6.886;2022-12-07T07:28:11;101197.00;;;8.80
60966;BMP180;46834;51.100;6.886;2022-12-07T07:30:37;101200.00;;;8.90
60966;BMP180;46834;51.100;6.886;2022-12-07T07:33:04;101193.00;;;8.90
60966;BMP180;46834;51.100;6.886;2022-12-07T07:35:33;101203.00;;;8.90
60966;BMP180;46834;51.100;6.886;2022-12-07T07:38:00;101197.00;;;8.90
60966;BMP180;46834;51.100;6.886;2022-12-07T07:40:27;101200.00;;;8.90
60966;BMP180;46834;51.100;6.886;2022-12-07T07:42:55;101203.00;;;8.90
60966;BMP180;46834;51.100;6.886;2022-12-07T07:45:23;101201.00;;;8.90
60966;BMP180;46834;51.100;6.886;2022-12-07T07:47:49;101200.00;;;8.90
60966;BMP180;46834;51.100;6.886;2022-12-07T07:50:16;101195.00;;;8.90
60966;BMP180;46834;51.100;6.886;2022-12-07T07:52:42;101194.00;;;8.80
60966;BMP180;46834;51.100;6.886;2022-12-07T07:55:08;101206.00;;;8.90
60966;BMP180;46834;51.100;6.886;2022-12-07T07:57:35;101208.00;;;8.80
60966;BMP180;46834;51.100;6.886;2022-12-07T08:00:07;101214.00;;;8.80
60966;BMP180;46834;51.100;6.886;2022-12-07T08:02:33;101215.00;;;8.80
60966;BMP180;46834;51.100;6.886;2022-12-07T08:04:59;101209.00;;;8.80
60966;BMP180;46834;51.100;6.886;2022-12-07T08:07:25;101204.00;;;8.80
60966;BMP180;46834;51.100;6.886;2022-12-07T08:09:52;101210.00;;;8.80
60966;BMP180;46834;51.100;6.886;2022-12-07T08:12:17;101206.00;;;8.80
60966;BMP180;46834;51.100;6.886;2022-12-07T08:14:43;101214.00;;;8.80
60966;BMP180;46834;51.100;6.886;2022-12-07T08:17:09;101214.00;;;8.80
60966;BMP180;46834;51.100;6.886;2022-12-07T08:19:34;101213.00;;;8.80
60966;BMP180;46834;51.100;6.886;2022-12-07T08:22:00;101217.00;;;8.80
60966;BMP180;46834;51.100;6.886;2022-12-07T08:24:26;101226.00;;;8.80
60966;BMP180;46834;51.100;6.886;2022-12-07T08:26:52;101212.00;;;8.80
60966;BMP180;46834;51.100;6.886;2022-12-07T08:29:17;101233.00;;;8.80
60966;BMP180;46834;51.100;6.886;2022-12-07T08:31:43;101226.00;;;8.80
60966;BMP180;46834;51.100;6.886;2022-12-07T08:34:11;101228.00;;;8.80
60966;BMP180;46834;51.100;6.886;2022-12-07T08:36:37;101239.00;;;8.80
60966;BMP180;46834;51.100;6.886;2022-12-07T08:39:03;101227.00;;;8.80
60966;BMP180;46834;51.100;6.886;2022-12-07T08:41:28;101231.00;;;8.80
60966;BMP180;46834;51.100;6.886;2022-12-07T08:43:54;101220.00;;;8.80
60966;BMP180;46834;51.100;6.886;2022-12-07T08:46:24;101237.00;;;8.80
60966;BMP180;46834;51.100;6.886;2022-12-07T08:51:35;101233.00;;;8.80
60966;BMP180;46834;51.100;6.886;2022-12-07T08:54:07;101232.00;;;8.80
60966;BMP180;46834;51.100;6.886;2022-12-07T08:56:34;101241.00;;;8.80
60966;BMP180;46834;51.100;6.886;2022-12-07T08:59:01;101220.00;;;8.90
60966;BMP180;46834;51.100;6.886;2022-12-07T09:01:28;101235.00;;;8.90
60966;BMP180;46834;51.100;6.886;2022-12-07T09:03:53;101215.00;;;8.90
60966;BMP180;46834;51.100;6.886;2022-12-07T09:06:19;101225.00;;;8.90
60966;BMP180;46834;51.100;6.886;2022-12-07T09:08:49;101220.00;;;8.90
60966;BMP180;46834;51.100;6.886;2022-12-07T09:11:15;101221.00;;;8.90
60966;BMP180;46834;51.100;6.886;2022-12-07T09:13:41;101223.00;;;9.00
60966;BMP180;46834;51.100;6.886;2022-12-07T09:16:06;101222.00;;;9.00
60966;BMP180;46834;51.100;6.886;2022-12-07T09:18:32;101214.00;;;9.00
60966;BMP180;46834;51.100;6.886;2022-12-07T09:20:58;101219.00;;;9.00
60966;BMP180;46834;51.100;6.886;2022-12-07T09:23:24;101232.00;;;9.00
60966;BMP180;46834;51.100;6.886;2022-12-07T09:25:49;101222.00;;;9.00
60966;BMP180;46834;51.100;6.886;2022-12-07T09:28:15;101223.00;;;9.00
60966;BMP180;46834;51.100;6.886;2022-12-07T09:30:48;101221.00;;;8.90
60966;BMP180;46834;51.100;6.886;2022-12-07T09:33:14;101222.00;;;9.00
60966;BMP180;46834;51.100;6.886;2022-12-07T09:35:49;101230.00;;;8.90
60966;BMP180;46834;51.100;6.886;2022-12-07T09:38:15;101223.00;;;9.00
60966;BMP180;46834;51.100;6.886;2022-12-07T09:40:42;101227.00;;;9.00
60966;BMP180;46834;51.100;6.886;2022-12-07T09:43:19;101227.00;;;9.00
60966;BMP180;46834;51.100;6.886;2022-12-07T09:45:49;101221.00;;;9.00
60966;BMP180;46834;51.100;6.886;2022-12-07T09:48:32;101220.00;;;9.00
60966;BMP180;46834;51.100;6.886;2022-12-07T09:51:00;101218.00;;;9.10
60966;BMP180;46834;51.100;6.886;2022-12-07T09:53:36;101227.00;;;9.10
60966;BMP180;46834;51.100;6.886;2022-12-07T09:56:03;101218.00;;;9.10
60966;BMP180;46834;51.100;6.886;2022-12-07T09:58:32;101204.00;;;9.20
60966;BMP180;46834;51.100;6.886;2022-12-07T10:03:39;101211.00;;;9.20
60966;BMP180;46834;51.100;6.886;2022-12-07T10:06:06;101210.00;;;9.20
60966;BMP180;46834;51.100;6.886;2022-12-07T10:08:33;101213.00;;;9.20
60966;BMP180;46834;51.100;6.886;2022-12-07T10:11:02;101213.00;;;9.20
60966;BMP180;46834;51.100;6.886;2022-12-07T10:13:49;101208.00;;;9.20
60966;BMP180;46834;51.100;6.886;2022-12-07T10:18:50;101211.00;;;9.20
60966;BMP180;46834;51.100;6.886;2022-12-07T10:21:20;101198.00;;;9.20
60966;BMP180;46834;51.100;6.886;2022-12-07T10:34:31;101202.00;;;9.30
60966;BMP180;46834;51.100;6.886;2022-12-07T10:39:51;101188.00;;;9.30
60966;BMP180;46834;51.100;6.886;2022-12-07T10:42:27;101185.00;;;9.40
60966;BMP180;46834;51.100;6.886;2022-12-07T10:45:17;101179.00;;;9.40
60966;BMP180;46834;51.100;6.886;2022-12-07T10:48:20;101179.00;;;9.40
60966;BMP180;46834;51.100;6.886;2022-12-07T10:51:20;101163.00;;;9.40
60966;BMP180;46834;51.100;6.886;2022-12-07T10:59:31;101168.00;;;9.50
60966;BMP180;46834;51.100;6.886;2022-12-07T11:05:48;101159.00;;;9.50
60966;BMP180;46834;51.100;6.886;2022-12-07T11:11:33;101136.00;;;9.50
60966;BMP180;46834;51.100;6.886;2022-12-07T11:16:59;101147.00;;;9.50
60966;BMP180;46834;51.100;6.886;2022-12-07T11:23:16;101138.00;;;9.50
60966;BMP180;46834;51.100;6.886;2022-12-07T11:31:35;101133.00;;;9.60
60966;BMP180;46834;51.100;6.886;2022-12-07T11:34:10;101135.00;;;9.60
60966;BMP180;46834;51.100;6.886;2022-12-07T11:36:51;101132.00;;;9.60
60966;BMP180;46834;51.100;6.886;2022-12-07T11:41:52;101133.00;;;9.70
60966;BMP180;46834;51.100;6.886;2022-12-07T11:44:38;101126.00;;;9.80
60966;BMP180;46834;51.100;6.886;2022-12-07T11:47:17;101121.00;;;9.80
60966;BMP180;46834;51.100;6.886;2022-12-07T11:49:48;101118.00;;;9.90
60966;BMP180;46834;51.100;6.886;2022-12-07T11:52:27;101117.00;;;9.90
60966;BMP180;46834;51.100;6.886;2022-12-07T11:54:59;101118.00;;;9.90
60966;BMP180;46834;51.100;6.886;2022-12-07T11:57:36;101111.00;;;10.00
60966;BMP180;46834;51.100;6.886;2022-12-07T12:00:15;101108.00;;;10.00
60966;BMP180;46834;51.100;6.886;2022-12-07T12:03:12;101110.00;;;10.00
60966;BMP180;46834;51.100;6.886;2022-12-07T12:05:39;101102.00;;;10.10
60966;BMP180;46834;51.100;6.886;2022-12-07T12:08:22;101110.00;;;10.10
60966;BMP180;46834;51.100;6.886;2022-12-07T12:11:13;101114.00;;;10.10
60966;BMP180;46834;51.100;6.886;2022-12-07T12:23:05;101094.00;;;10.20
60966;BMP180;46834;51.100;6.886;2022-12-07T12:25:44;101089.00;;;10.20
60966;BMP180;46834;51.100;6.886;2022-12-07T12:28:40;101088.00;;;10.20
60966;BMP180;46834;51.100;6.886;2022-12-07T12:31:39;101083.00;;;10.20
60966;BMP180;46834;51.100;6.886;2022-12-07T12:34:32;101083.00;;;10.20
60966;BMP180;46834;51.100;6.886;2022-12-07T12:36:58;101083.00;;;10.30
60966;BMP180;46834;51.100;6.886;2022-12-07T12:39:24;101078.00;;;10.30
60966;BMP180;46834;51.100;6.886;2022-12-07T12:41:54;101071.00;;;10.30
60966;BMP180;46834;51.100;6.886;2022-12-07T12:46:57;101067.00;;;10.40
60966;BMP180;46834;51.100;6.886;2022-12-07T12:55:12;101077.00;;;10.50
60966;BMP180;46834;51.100;6.886;2022-12-07T12:57:38;101070.00;;;10.60
60966;BMP180;46834;51.100;6.886;2022-12-07T13:00:23;101077.00;;;10.60
60966;BMP180;46834;51.100;6.886;2022-12-07T13:02:59;101066.00;;;10.70
60966;BMP180;46834;51.100;6.886;2022-12-07T13:05:31;101066.00;;;10.70
60966;BMP180;46834;51.100;6.886;2022-12-07T13:08:05;101067.00;;;10.80
60966;BMP180;46834;51.100;6.886;2022-12-07T13:10:45;101047.00;;;10.80
60966;BMP180;46834;51.100;6.886;2022-12-07T13:15:50;101056.00;;;10.90
60966;BMP180;46834;51.100;6.886;2022-12-07T13:23:35;101053.00;;;11.00
60966;BMP180;46834;51.100;6.886;2022-12-07T13:26:13;101063.00;;;11.00
60966;BMP180;46834;51.100;6.886;2022-12-07T13:28:54;101053.00;;;11.00
60966;BMP180;46834;51.100;6.886;2022-12-07T13:31:35;101054.00;;;11.00
60966;BMP180;46834;51.100;6.886;2022-12-07T13:34:03;101052.00;;;11.00
60966;BMP180;46834;51.100;6.886;2022-12-07T13:36:39;101046.00;;;10.90
60966;BMP180;46834;51.100;6.886;2022-12-07T13:39:19;101045.00;;;10.90
60966;BMP180;46834;51.100;6.886;2022-12-07T13:41:54;101045.00;;;11.00
60966;BMP180;46834;51.100;6.886;2022-12-07T13:44:21;101040.00;;;11.00
60966;BMP180;46834;51.100;6.886;2022-12-07T13:47:04;101044.00;;;10.90
60966;BMP180;46834;51.100;6.886;2022-12-07T13:49:38;101034.00;;;10.90
60966;BMP180;46834;51.100;6.886;2022-12-07T13:52:25;101034.00;;;10.90
60966;BMP180;46834;51.100;6.886;2022-12-07T13:55:01;101026.00;;;10.90
60966;BMP180;46834;51.100;6.886;2022-12-07T13:57:29;101030.00;;;10.90
60966;BMP180;46834;51.100;6.886;2022-12-07T13:59:57;101034.00;;;10.90
60966;BMP180;46834;51.100;6.886;2022-12-07T14:02:32;101024.00;;;10.90
60966;BMP180;46834;51.100;6.886;2022-12-07T14:05:25;101016.00;;;10.90
60966;BMP180;46834;51.100;6.886;2022-12-07T14:08:00;101035.00;;;10.90
60966;BMP180;46834;51.100;6.886;2022-12-07T14:10:28;101026.00;;;10.90
60966;BMP180;46834;51.100;6.886;2022-12-07T14:12:55;101036.00;;;10.90
60966;BMP180;46834;51.100;6.886;2022-12-07T14:15:29;101020.00;;;10.90
60966;BMP180;46834;51.100;6.886;2022-12-07T14:17:58;101017.00;;;10.90
60966;BMP180;46834;51.100;6.886;2022-12-07T14:20:39;101017.00;;;10.90
60966;BMP180;46834;51.100;6.886;2022-12-07T14:23:24;101014.00;;;10.80
60966;BMP180;46834;51.100;6.886;2022-12-07T14:25:52;101025.00;;;10.90
60966;BMP180;46834;51.100;6.886;2022-12-07T14:28:33;101011.00;;;10.90
60966;BMP180;46834;51.100;6.886;2022-12-07T14:31:01;101010.00;;;10.90
60966;BMP180;46834;51.100;6.886;2022-12-07T14:33:28;101006.00;;;10.90
60966;BMP180;46834;51.100;6.886;2022-12-07T14:35:54;101001.00;;;10.90
60966;BMP180;46834;51.100;6.886;2022-12-07T14:38:22;100991.00;;;10.90
60966;BMP180;46834;51.100;6.886;2022-12-07T14:40:48;101006.00;;;10.90
60966;BMP180;46834;51.100;6.886;2022-12-07T14:43:18;100997.00;;;10.90
60966;BMP180;46834;51.100;6.886;2022-12-07T14:45:44;101002.00;;;10.90
60966;BMP180;46834;51.100;6.886;2022-12-07T14:48:16;101000.00;;;10.90
60966;BMP180;46834;51.100;6.886;2022-12-07T14:50:49;101000.00;;;10.90
60966;BMP180;46834;51.100;6.886;2022-12-07T14:53:22;101003.00;;;10.90
60966;BMP180;46834;51.100;6.886;2022-12-07T14:55:52;100994.00;;;10.90
60966;BMP180;46834;51.100;6.886;2022-12-07T14:58:18;100984.00;;;10.90
60966;BMP180;46834;51.100;6.886;2022-12-07T15:00:44;100983.00;;;10.90
60966;BMP180;46834;51.100;6.886;2022-12-07T15:03:10;100982.00;;;10.80
60966;BMP180;46834;51.100;6.886;2022-12-07T15:05:38;100980.00;;;10.80
60966;BMP180;46834;51.100;6.886;2022-12-07T15:08:12;100986.00;;;10.80
60966;BMP180;46834;51.100;6.886;2022-12-07T15:10:38;100964.00;;;10.80
60966;BMP180;46834;51.100;6.886;2022-12-07T15:13:06;100977.00;;;10.80
60966;BMP180;46834;51.100;6.886;2022-12-07T15:15:53;100981.00;;;10.70
60966;BMP180;46834;51.100;6.886;2022-12-07T15:18:20;100982.00;;;10.70
60966;BMP180;46834;51.100;6.886;2022-12-07T15:20:47;100978.00;;;10.70
60966;BMP180;46834;51.100;6.886;2022-12-07T15:23:14;100974.00;;;10.70
60966;BMP180;46834;51.100;6.886;2022-12-07T15:25:45;100969.00;;;10.60
60966;BMP180;46834;51.100;6.886;2022-12-07T15:28:12;100968.00;;;10.60
60966;BMP180;46834;51.100;6.886;2022-12-07T15:30:39;100976.00;;;10.60
60966;BMP180;46834;51.100;6.886;2022-12-07T15:33:05;100970.00;;;10.60
60966;BMP180;46834;51.100;6.886;2022-12-07T15:35:30;100961.00;;;10.60
60966;BMP180;46834;51.100;6.886;2022-12-07T15:37:56;100972.00;;;10.60
60966;BMP180;46834;51.100;6.886;2022-12-07T15:40:22;100968.00;;;10.50
60966;BMP180;46834;51.100;6.886;2022-12-07T15:42:47;100963.00;;;10.50
60966;BMP180;46834;51.100;6.886;2022-12-07T15:45:13;100961.00;;;10.50
60966;BMP180;46834;51.100;6.886;2022-12-07T15:47:42;100973.00;;;10.50
60966;BMP180;46834;51.100;6.886;2022-12-07T15:50:14;100970.00;;;10.50
60966;BMP180;46834;51.100;6.886;2022-12-07T15:52:40;100959.00;;;10.50
60966;BMP180;46834;51.100;6.886;2022-12-07T15:55:07;100968.00;;;10.50
60966;BMP180;46834;51.100;6.886;2022-12-07T15:57:35;100974.00;;;10.40
60966;BMP180;46834;51.100;6.886;2022-12-07T16:00:04;100975.00;;;10.40
60966;BMP180;46834;51.100;6.886;2022-12-07T16:02:30;100969.00;;;10.40
60966;BMP180;46834;51.100;6.886;2022-12-07T16:04:55;100962.00;;;10.40